createdAt,value
2019-04-10T00:03:44.194Z,66.16
2019-04-10T00:06:32.008Z,66.19
2019-04-10T00:09:21.150Z,66.02
2019-04-10T00:12:09.499Z,66.30
2019-04-10T00:14:39.084Z,66.14
2019-04-10T00:17:07.480Z,65.73
2019-04-10T00:19:35.980Z,65.79
2019-04-10T00:22:04.363Z,65.74
2019-04-10T00:27:24.299Z,65.68
2019-04-10T00:29:52.725Z,65.48
2019-04-10T00:32:21.626Z,65.52
2019-04-10T00:34:51.860Z,65.96
2019-04-10T00:37:26.727Z,66.47
2019-04-10T00:39:50.839Z,66.88
2019-04-10T00:42:19.172Z,66.91
2019-04-10T00:44:48.063Z,66.91
2019-04-10T00:47:17.018Z,66.97
2019-04-10T00:49:46.129Z,66.71
2019-04-10T00:52:14.972Z,66.97
2019-04-10T00:54:43.515Z,66.89
2019-04-10T00:57:12.827Z,66.80
2019-04-10T00:59:42.151Z,66.91
2019-04-10T01:02:10.533Z,67.14
2019-04-10T01:04:38.943Z,67.60
2019-04-10T01:07:07.340Z,67.12
2019-04-10T01:09:35.791Z,66.82
2019-04-10T01:12:04.183Z,67.51
2019-04-10T01:14:32.593Z,67.64
2019-04-10T01:17:02.067Z,67.84
2019-04-10T01:19:30.600Z,68.39
2019-04-10T01:21:58.999Z,68.62
2019-04-10T01:24:27.941Z,68.65
2019-04-10T01:26:56.376Z,68.34
2019-04-10T01:29:25.141Z,68.29
2019-04-10T01:31:53.553Z,68.15
2019-04-10T01:34:21.955Z,68.47
2019-04-10T01:36:50.354Z,68.93
2019-04-10T01:39:20.635Z,69.85
2019-04-10T01:41:50.096Z,69.58
2019-04-10T01:44:18.503Z,69.81
2019-04-10T01:46:46.970Z,70.16
2019-04-10T01:49:15.681Z,70.22
2019-04-10T01:51:44.044Z,70.59
2019-04-10T01:54:13.061Z,70.49
2019-04-10T01:56:41.888Z,70.91
2019-04-10T01:59:10.474Z,71.66
2019-04-10T02:01:49.024Z,72.15
2019-04-10T02:04:18.403Z,72.08
2019-04-10T02:06:46.796Z,71.92
2019-04-10T02:09:15.205Z,72.05
2019-04-10T02:11:43.596Z,72.66
2019-04-10T02:14:12.162Z,73.29
2019-04-10T02:16:41.133Z,73.40
2019-04-10T02:19:10.103Z,74.31
2019-04-10T02:21:38.519Z,74.40
2019-04-10T02:24:07.072Z,74.45
2019-04-10T02:26:35.963Z,74.62
2019-04-10T02:29:04.368Z,73.79
2019-04-10T02:31:34.294Z,74.52
2019-04-10T02:34:04.780Z,74.41
2019-04-10T02:36:34.465Z,74.60
2019-04-10T02:39:15.212Z,74.38
2019-04-10T02:41:36.306Z,74.44
2019-04-10T02:44:05.076Z,75.57
2019-04-10T02:46:33.525Z,76.63
2019-04-10T02:49:03.771Z,76.63
2019-04-10T02:51:32.555Z,77.00
2019-04-10T02:54:02.375Z,78.12
2019-04-10T02:56:32.632Z,78.87
2019-04-10T02:59:02.832Z,78.98
2019-04-10T03:01:31.647Z,78.62
2019-04-10T03:04:01.303Z,78.71
2019-04-10T03:06:31.164Z,79.41
2019-04-10T03:09:14.744Z,79.65
2019-04-10T03:11:31.266Z,80.48
2019-04-10T03:14:01.369Z,80.62
2019-04-10T03:16:29.819Z,80.71
2019-04-10T03:18:58.211Z,80.80
2019-04-10T03:21:27.023Z,80.34
2019-04-10T03:23:55.981Z,80.31
2019-04-10T03:26:24.373Z,79.71
2019-04-10T03:28:53.538Z,79.64
2019-04-10T03:31:23.032Z,79.70
2019-04-10T03:33:55.351Z,79.56
2019-04-10T03:36:23.904Z,80.95
2019-04-10T03:38:58.750Z,81.16
2019-04-10T03:41:22.422Z,81.59
2019-04-10T03:43:50.819Z,81.75
2019-04-10T03:46:19.515Z,81.66
2019-04-10T03:48:47.966Z,81.28
2019-04-10T03:51:16.601Z,81.66
2019-04-10T03:53:44.940Z,82.58
2019-04-10T03:56:13.811Z,82.24
2019-04-10T03:58:42.255Z,82.35
2019-04-10T04:01:11.005Z,82.33
2019-04-10T04:03:40.481Z,81.69
2019-04-10T04:06:08.999Z,81.41
2019-04-10T04:08:37.510Z,81.45
2019-04-10T04:11:05.856Z,82.51
2019-04-10T04:13:35.452Z,82.53
2019-04-10T04:16:03.849Z,83.14
2019-04-10T04:18:33.257Z,83.03
2019-04-10T04:21:01.650Z,82.36
2019-04-10T04:23:30.024Z,81.91
2019-04-10T04:25:58.943Z,81.79
2019-04-10T04:28:27.692Z,81.93
2019-04-10T04:30:56.780Z,82.26
2019-04-10T04:33:25.280Z,82.51
2019-04-10T04:35:53.694Z,82.28
2019-04-10T04:38:22.084Z,82.62
2019-04-10T04:40:51.461Z,82.38
2019-04-10T04:43:21.705Z,83.04
2019-04-10T04:45:51.586Z,82.69
2019-04-10T04:48:20.019Z,82.02
2019-04-10T04:50:48.424Z,81.75
2019-04-10T04:53:16.816Z,81.31
2019-04-10T04:55:45.293Z,81.32
2019-04-10T04:58:13.845Z,81.55
2019-04-10T05:00:42.169Z,81.73
2019-04-10T05:03:10.574Z,81.51
2019-04-10T05:05:39.154Z,81.63
2019-04-10T05:08:08.467Z,81.19
2019-04-10T05:10:37.817Z,79.96
2019-04-10T05:13:06.212Z,79.31
2019-04-10T05:15:35.268Z,78.28
2019-04-10T05:18:04.072Z,76.81
2019-04-10T05:20:43.188Z,76.11
2019-04-10T05:23:02.574Z,74.79
2019-04-10T05:25:31.599Z,74.27
2019-04-10T05:27:59.993Z,72.63
2019-04-10T05:30:29.205Z,71.75
2019-04-10T05:32:57.774Z,70.47
2019-04-10T05:35:26.196Z,69.27
2019-04-10T05:37:54.599Z,69.03
2019-04-10T05:40:23.878Z,66.72
2019-04-10T05:42:53.269Z,66.34
2019-04-10T05:45:21.766Z,65.53
2019-04-10T05:47:50.733Z,66.36
2019-04-10T05:50:19.453Z,65.62
2019-04-10T05:52:47.937Z,64.83
2019-04-10T05:55:16.328Z,63.09
2019-04-10T05:57:44.874Z,60.28
2019-04-10T06:00:15.019Z,58.94
2019-04-10T06:02:43.870Z,56.83
2019-04-10T06:05:12.572Z,53.82
2019-04-10T06:07:41.351Z,53.19
2019-04-10T06:10:10.769Z,50.60
2019-04-10T06:12:39.273Z,49.85
2019-04-10T06:15:08.116Z,48.03
2019-04-10T06:17:36.519Z,47.05
2019-04-10T06:20:07.621Z,46.99
2019-04-10T06:22:36.897Z,46.53
2019-04-10T06:25:28.964Z,45.01
2019-04-10T06:27:58.986Z,47.41
2019-04-10T06:30:28.443Z,48.02
2019-04-10T06:33:16.098Z,45.58
2019-04-10T06:35:44.738Z,45.11
2019-04-10T06:38:34.985Z,44.62
2019-04-10T06:41:04.135Z,42.54
2019-04-10T06:43:34.005Z,43.39
2019-04-10T06:46:22.248Z,41.99
2019-04-10T06:48:52.054Z,41.18
2019-04-10T06:51:21.907Z,42.01
2019-04-10T06:54:00.100Z,44.84
2019-04-10T06:56:39.549Z,43.11
2019-04-10T06:59:28.300Z,42.42
2019-04-10T07:05:07.292Z,41.88
2019-04-10T07:07:46.612Z,41.53
2019-04-10T07:10:52.039Z,42.14
2019-04-10T07:13:14.179Z,41.48
2019-04-10T07:18:50.485Z,42.05
2019-04-10T07:21:20.123Z,43.18
2019-04-10T07:23:49.392Z,43.12
2019-04-10T07:26:41.651Z,41.99
2019-04-10T07:29:07.164Z,42.20
2019-04-10T07:31:37.777Z,40.41
2019-04-10T07:34:46.654Z,39.90
2019-04-10T07:37:18.471Z,39.67
2019-04-10T07:39:46.761Z,38.52
2019-04-10T07:45:43.338Z,40.08
2019-04-10T07:48:12.779Z,39.90
2019-04-10T07:50:44.470Z,38.68
2019-04-10T07:53:12.773Z,39.24
2019-04-10T07:55:54.741Z,38.67
2019-04-10T07:58:31.498Z,40.95
2019-04-10T08:01:00.888Z,42.08
2019-04-10T08:03:31.147Z,39.67
2019-04-10T08:09:06.712Z,40.85
2019-04-10T08:14:42.051Z,41.41
2019-04-10T08:22:33.154Z,38.20
2019-04-10T08:25:20.676Z,38.07
2019-04-10T08:27:50.072Z,36.89
2019-04-10T08:30:59.117Z,35.20
2019-04-10T08:33:28.090Z,33.18
2019-04-10T08:38:32.286Z,31.40
2019-04-10T08:41:01.379Z,33.89
2019-04-10T08:43:50.192Z,34.32
2019-04-10T08:46:19.812Z,34.92
2019-04-10T08:48:49.793Z,34.65
2019-04-10T08:51:39.448Z,35.31
2019-04-10T08:59:16.845Z,36.53
2019-04-10T09:02:04.495Z,33.81
2019-04-10T09:04:33.638Z,32.21
2019-04-10T09:07:22.236Z,33.42
2019-04-10T09:09:50.627Z,33.16
2019-04-10T09:12:38.933Z,33.82
2019-04-10T09:18:11.255Z,35.44
2019-04-10T09:20:40.571Z,37.40
2019-04-10T09:23:39.010Z,35.14
2019-04-10T09:26:18.387Z,35.98
2019-04-10T09:29:06.713Z,37.01
2019-04-10T09:31:36.164Z,35.85
2019-04-10T09:34:46.643Z,34.70
2019-04-10T09:37:34.487Z,34.86
2019-04-10T09:40:44.702Z,35.98
2019-04-10T09:43:33.874Z,36.66
2019-04-10T09:46:04.189Z,38.37
2019-04-10T09:48:52.369Z,37.23
2019-04-10T09:51:21.493Z,37.29
2019-04-10T09:53:51.152Z,36.25
2019-04-10T09:56:40.145Z,36.43
2019-04-10T09:59:35.578Z,36.99
2019-04-10T10:01:58.370Z,35.15
2019-04-10T10:04:29.131Z,33.93
2019-04-10T10:06:58.040Z,34.06
2019-04-10T10:09:45.563Z,34.51
2019-04-10T10:12:13.954Z,38.72
2019-04-10T10:14:42.377Z,35.21
2019-04-10T10:17:10.761Z,34.79
2019-04-10T10:19:39.628Z,35.89
2019-04-10T10:22:09.423Z,37.08
2019-04-10T10:24:59.378Z,40.46
2019-04-10T10:27:28.669Z,35.82
2019-04-10T10:30:17.546Z,34.18
2019-04-10T10:35:49.609Z,38.12
2019-04-10T10:38:19.334Z,35.17
2019-04-10T10:41:06.985Z,36.57
2019-04-10T10:43:36.281Z,35.01
2019-04-10T10:46:25.169Z,38.15
2019-04-10T10:51:41.064Z,36.55
2019-04-10T10:54:10.502Z,36.13
2019-04-10T10:56:39.597Z,36.30
2019-04-10T10:59:27.358Z,36.17
2019-04-10T11:01:55.997Z,36.90
2019-04-10T11:04:25.920Z,38.75
2019-04-10T11:06:59.987Z,37.51
2019-04-10T11:12:12.217Z,35.31
2019-04-10T11:15:02.249Z,35.06
2019-04-10T11:23:20.271Z,36.65
2019-04-10T11:26:08.436Z,34.60
2019-04-10T11:28:39.296Z,33.92
2019-04-10T11:31:27.404Z,35.40
2019-04-10T11:33:56.791Z,35.26
2019-04-10T11:36:26.112Z,35.10
2019-04-10T11:42:04.079Z,34.41
2019-04-10T11:45:14.415Z,32.52
2019-04-10T11:47:42.812Z,33.36
2019-04-10T11:50:53.456Z,34.88
2019-04-10T11:54:02.221Z,33.12
2019-04-10T11:56:33.767Z,32.68
2019-04-10T11:59:22.061Z,34.58
2019-04-10T12:01:56.139Z,32.90
2019-04-10T12:04:20.941Z,35.37
2019-04-10T12:07:09.777Z,33.25
2019-04-10T12:12:09.072Z,32.93
2019-04-10T12:14:57.964Z,33.12
2019-04-10T12:17:26.362Z,34.74
2019-04-10T12:26:17.876Z,34.06
2019-04-10T12:28:46.983Z,33.79
2019-04-10T12:31:34.733Z,34.43
2019-04-10T12:34:22.495Z,32.98
2019-04-10T12:37:30.819Z,33.88
2019-04-10T12:40:19.446Z,32.53
2019-04-10T12:46:02.432Z,33.06
2019-04-10T12:48:30.839Z,35.48
2019-04-10T12:51:19.350Z,33.05
2019-04-10T12:54:01.250Z,34.50
2019-04-10T12:59:05.139Z,31.91
2019-04-10T13:01:53.944Z,32.39
2019-04-10T13:07:11.379Z,32.20
2019-04-10T13:09:40.491Z,30.81
2019-04-10T13:12:29.211Z,31.62
2019-04-10T13:14:59.126Z,32.42
2019-04-10T13:17:47.636Z,33.80
2019-04-10T13:20:55.944Z,34.19
2019-04-10T13:23:24.640Z,32.94
2019-04-10T13:25:59.799Z,32.00
2019-04-10T13:28:25.534Z,31.97
2019-04-10T13:30:56.565Z,31.23
2019-04-10T13:33:24.873Z,31.65
2019-04-10T13:36:13.408Z,32.61
2019-04-10T13:38:42.757Z,34.04
2019-04-10T13:41:30.362Z,34.63
2019-04-10T13:43:59.026Z,32.01
2019-04-10T13:46:49.072Z,30.61
2019-04-10T13:49:19.895Z,32.43
2019-04-10T13:51:50.017Z,31.13
2019-04-10T13:54:38.897Z,32.01
2019-04-10T13:57:08.361Z,31.28
2019-04-10T13:59:37.306Z,33.07
2019-04-10T14:02:07.293Z,31.89
2019-04-10T14:04:35.705Z,31.22
2019-04-10T14:07:04.783Z,31.50
2019-04-10T14:09:52.645Z,30.61
2019-04-10T14:12:21.010Z,30.64
2019-04-10T14:14:49.418Z,30.51
2019-04-10T14:17:17.813Z,31.61
2019-04-10T14:22:21.790Z,30.90
2019-04-10T14:24:52.123Z,32.09
2019-04-10T14:33:44.854Z,33.40
2019-04-10T14:36:13.879Z,32.06
2019-04-10T14:39:11.920Z,32.47
2019-04-10T14:41:33.747Z,34.43
2019-04-10T14:52:05.628Z,35.07
2019-04-10T14:54:34.036Z,34.19
2019-04-10T14:57:23.065Z,34.88
2019-04-10T15:00:30.749Z,34.32
2019-04-10T15:03:18.388Z,36.02
2019-04-10T15:06:06.956Z,34.30
2019-04-10T15:08:55.620Z,33.27
2019-04-10T15:11:24.741Z,32.39
2019-04-10T15:14:13.269Z,33.85
2019-04-10T15:17:04.459Z,33.43
2019-04-10T15:19:32.205Z,33.90
2019-04-10T15:22:20.235Z,33.76
2019-04-10T15:24:49.633Z,33.00
2019-04-10T15:27:37.879Z,34.72
2019-04-10T15:30:46.626Z,34.76
2019-04-10T15:33:35.817Z,33.67
2019-04-10T15:36:04.224Z,33.79
2019-04-10T15:38:52.726Z,34.49
2019-04-10T15:41:41.333Z,35.19
2019-04-10T15:44:11.989Z,33.78
2019-04-10T15:46:41.527Z,33.69
2019-04-10T15:49:11.487Z,35.03
2019-04-10T15:51:39.888Z,33.69
2019-04-10T15:54:09.647Z,34.48
2019-04-10T15:56:38.657Z,34.23
2019-04-10T15:59:26.184Z,34.62
2019-04-10T16:02:13.710Z,34.63
2019-04-10T16:07:36.214Z,35.65
2019-04-10T16:10:43.593Z,34.14
2019-04-10T16:19:14.630Z,34.72
2019-04-10T16:22:02.693Z,34.97
2019-04-10T16:24:31.207Z,34.10
2019-04-10T16:27:18.647Z,35.41
2019-04-10T16:29:47.053Z,35.50
2019-04-10T16:32:15.455Z,35.81
2019-04-10T16:35:03.234Z,35.63
2019-04-10T16:37:33.576Z,35.73
2019-04-10T16:40:22.742Z,35.31
2019-04-10T16:43:10.337Z,35.66
2019-04-10T16:45:57.994Z,35.27
2019-04-10T16:48:26.505Z,35.66
2019-04-10T16:50:56.534Z,35.88
2019-04-10T16:53:45.431Z,35.89
2019-04-10T16:56:14.321Z,35.29
2019-04-10T16:59:02.546Z,36.06
2019-04-10T17:01:33.005Z,36.38
2019-04-10T17:04:01.368Z,36.78
2019-04-10T17:06:30.349Z,36.78
2019-04-10T17:08:58.757Z,37.45
2019-04-10T17:11:27.197Z,37.94
2019-04-10T17:14:15.193Z,37.24
2019-04-10T17:16:43.987Z,37.67
2019-04-10T17:19:13.933Z,36.62
2019-04-10T17:21:44.608Z,36.54
2019-04-10T17:27:01.616Z,36.98
2019-04-10T17:29:51.539Z,37.44
2019-04-10T17:32:21.410Z,38.04
2019-04-10T17:38:18.527Z,37.25
2019-04-10T17:41:07.165Z,37.68
2019-04-10T17:43:55.651Z,38.22
2019-04-10T17:46:43.664Z,38.88
2019-04-10T17:49:13.382Z,38.72
2019-04-10T17:52:03.307Z,38.77
2019-04-10T17:54:31.485Z,39.10
2019-04-10T17:57:02.448Z,39.48
2019-04-10T17:59:32.341Z,39.53
2019-04-10T18:02:21.192Z,39.99
2019-04-10T18:04:50.375Z,40.00
2019-04-10T18:07:19.750Z,40.79
2019-04-10T18:09:48.582Z,41.30
2019-04-10T18:12:19.397Z,41.79
2019-04-10T18:17:35.883Z,42.77
2019-04-10T18:20:44.488Z,43.16
2019-04-10T18:23:32.004Z,43.60
2019-04-10T18:26:00.494Z,43.49
2019-04-10T18:29:27.409Z,43.69
2019-04-10T18:31:57.926Z,43.74
2019-04-10T18:34:27.030Z,44.28
2019-04-10T18:37:20.655Z,44.77
2019-04-10T18:39:46.453Z,45.02
2019-04-10T18:42:17.308Z,45.54
2019-04-10T18:47:36.436Z,45.81
2019-04-10T18:53:13.106Z,46.64
2019-04-10T18:56:01.374Z,47.18
2019-04-10T18:58:50.651Z,47.21
2019-04-10T19:01:39.054Z,46.81
2019-04-10T19:04:27.450Z,46.80
2019-04-10T19:07:15.370Z,46.54
2019-04-10T19:10:04.317Z,47.08
2019-04-10T19:12:33.471Z,47.54
2019-04-10T19:15:21.121Z,47.15
2019-04-10T19:17:49.529Z,47.72
2019-04-10T19:20:37.173Z,47.87
2019-04-10T19:25:41.115Z,48.41
2019-04-10T19:28:35.053Z,48.83
2019-04-10T19:31:20.008Z,49.02
2019-04-10T19:34:07.343Z,48.95
2019-04-10T19:36:36.219Z,48.94
2019-04-10T19:39:46.666Z,48.96
2019-04-10T19:42:35.649Z,49.26
2019-04-10T19:45:45.015Z,49.21
2019-04-10T19:50:49.894Z,49.72
2019-04-10T19:55:53.917Z,50.30
2019-04-10T19:58:38.521Z,50.29
2019-04-10T20:01:12.798Z,50.18
2019-04-10T20:03:41.194Z,50.30
2019-04-10T20:06:09.603Z,50.79
2019-04-10T20:11:12.886Z,51.13
2019-04-10T20:16:35.375Z,51.80
2019-04-10T20:21:56.983Z,53.09
2019-04-10T20:24:25.381Z,53.16
2019-04-10T20:29:28.857Z,53.74
2019-04-10T20:32:17.650Z,54.24
2019-04-10T20:37:34.633Z,54.88
2019-04-10T20:43:11.108Z,55.04
2019-04-10T20:45:58.606Z,55.52
2019-04-10T20:48:27.017Z,55.79
2019-04-10T20:51:14.542Z,56.23
2019-04-10T20:54:02.321Z,56.75
2019-04-10T20:56:30.770Z,56.98
2019-04-10T20:58:59.397Z,57.12
2019-04-10T21:01:28.819Z,57.21
2019-04-10T21:03:57.273Z,57.52
2019-04-10T21:06:25.678Z,57.99
2019-04-10T21:11:29.204Z,58.25
2019-04-10T21:14:19.088Z,58.83
2019-04-10T21:19:35.574Z,58.65
2019-04-10T21:24:52.068Z,59.21
2019-04-10T21:27:21.488Z,60.07
2019-04-10T21:30:28.506Z,60.22
2019-04-10T21:33:16.329Z,60.61
2019-04-10T21:35:45.605Z,61.00
2019-04-10T21:38:34.029Z,60.70
2019-04-10T21:41:22.058Z,61.59
2019-04-10T21:43:52.286Z,61.82
2019-04-10T21:46:22.204Z,62.31
2019-04-10T21:48:52.059Z,62.78
2019-04-10T21:51:20.456Z,62.75
2019-04-10T21:54:08.016Z,62.81
2019-04-10T21:56:37.257Z,63.20
2019-04-10T21:59:26.763Z,63.36
2019-04-10T22:01:56.955Z,63.45
2019-04-10T22:07:20.376Z,63.30
2019-04-10T22:10:09.890Z,63.45
2019-04-10T22:12:43.845Z,63.77
2019-04-10T22:20:22.227Z,64.01
2019-04-10T22:23:09.892Z,64.31
2019-04-10T22:25:57.491Z,64.30
2019-04-10T22:31:00.309Z,65.12
2019-04-10T22:33:48.938Z,65.07
2019-04-10T22:36:37.438Z,65.58
2019-04-10T22:39:45.738Z,65.34
2019-04-10T22:42:41.643Z,65.83
2019-04-10T22:45:45.015Z,66.00
2019-04-10T22:48:14.610Z,66.73
2019-04-10T22:51:03.458Z,66.95
2019-04-10T22:54:13.100Z,67.66
2019-04-10T23:00:10.001Z,68.01
2019-04-10T23:02:38.393Z,68.18
2019-04-10T23:08:01.532Z,68.93
2019-04-10T23:10:49.290Z,69.22
2019-04-10T23:13:36.935Z,69.53
2019-04-10T23:16:46.354Z,70.10
2019-04-10T23:19:34.624Z,70.70
2019-04-10T23:22:03.182Z,70.40
2019-04-10T23:24:33.826Z,70.39
2019-04-10T23:27:22.510Z,70.21
2019-04-10T23:32:25.265Z,69.73
2019-04-10T23:35:13.558Z,70.36
2019-04-10T23:38:02.152Z,70.52
2019-04-10T23:40:30.557Z,70.26
2019-04-10T23:43:20.034Z,69.85
2019-04-10T23:48:22.543Z,69.95
2019-04-10T23:50:52.413Z,69.99
2019-04-10T23:53:20.803Z,70.03
2019-04-10T23:55:50.332Z,69.72
2019-04-10T23:58:19.949Z,69.20
